sensor_id;sensor_type;location;lat;lon;timestamp;P1;durP1;ratioP1;P2;durP2;ratioP2
60851;SDS011;48553;50.766;2.900;2023-02-01T00:02:41;15.45;;;3.60;;
60851;SDS011;48553;50.766;2.900;2023-02-01T00:05:42;14.70;;;3.28;;
60851;SDS011;48553;50.766;2.900;2023-02-01T00:08:42;13.93;;;3.45;;
60851;SDS011;48553;50.766;2.900;2023-02-01T00:11:42;12.85;;;3.15;;
60851;SDS011;48553;50.766;2.900;2023-02-01T00:14:43;13.18;;;3.30;;
60851;SDS011;48553;50.766;2.900;2023-02-01T00:17:44;17.05;;;3.65;;
60851;SDS011;48553;50.766;2.900;2023-02-01T00:20:47;17.27;;;3.17;;
60851;SDS011;48553;50.766;2.900;2023-02-01T00:23:47;13.15;;;3.33;;
60851;SDS011;48553;50.766;2.900;2023-02-01T00:26:48;14.48;;;2.85;;
60851;SDS011;48553;50.766;2.900;2023-02-01T00:29:48;11.15;;;2.88;;
60851;SDS011;48553;50.766;2.900;2023-02-01T00:32:49;12.07;;;2.75;;
60851;SDS011;48553;50.766;2.900;2023-02-01T00:35:49;13.10;;;2.72;;
60851;SDS011;48553;50.766;2.900;2023-02-01T00:38:50;16.80;;;3.10;;
60851;SDS011;48553;50.766;2.900;2023-02-01T00:41:50;15.00;;;2.85;;
60851;SDS011;48553;50.766;2.900;2023-02-01T00:44:51;12.55;;;2.92;;
60851;SDS011;48553;50.766;2.900;2023-02-01T00:47:51;11.93;;;2.47;;
60851;SDS011;48553;50.766;2.900;2023-02-01T00:50:51;17.48;;;2.80;;
60851;SDS011;48553;50.766;2.900;2023-02-01T00:53:52;12.10;;;2.67;;
60851;SDS011;48553;50.766;2.900;2023-02-01T00:56:53;13.30;;;2.40;;
60851;SDS011;48553;50.766;2.900;2023-02-01T00:59:54;17.73;;;2.80;;
60851;SDS011;48553;50.766;2.900;2023-02-01T01:02:54;12.30;;;2.65;;
60851;SDS011;48553;50.766;2.900;2023-02-01T01:05:56;13.68;;;2.60;;
60851;SDS011;48553;50.766;2.900;2023-02-01T01:08:58;13.20;;;2.20;;
60851;SDS011;48553;50.766;2.900;2023-02-01T01:12:00;14.30;;;2.97;;
60851;SDS011;48553;50.766;2.900;2023-02-01T01:15:02;13.43;;;2.67;;
60851;SDS011;48553;50.766;2.900;2023-02-01T01:18:03;11.68;;;2.63;;
60851;SDS011;48553;50.766;2.900;2023-02-01T01:21:05;15.55;;;2.65;;
60851;SDS011;48553;50.766;2.900;2023-02-01T01:24:07;11.52;;;2.53;;
60851;SDS011;48553;50.766;2.900;2023-02-01T01:27:07;12.20;;;2.40;;
60851;SDS011;48553;50.766;2.900;2023-02-01T01:30:08;10.80;;;2.45;;
60851;SDS011;48553;50.766;2.900;2023-02-01T01:33:09;12.05;;;2.28;;
60851;SDS011;48553;50.766;2.900;2023-02-01T01:36:09;11.25;;;2.30;;
60851;SDS011;48553;50.766;2.900;2023-02-01T01:39:11;14.75;;;2.58;;
60851;SDS011;48553;50.766;2.900;2023-02-01T01:42:12;10.32;;;2.65;;
60851;SDS011;48553;50.766;2.900;2023-02-01T01:45:24;6.70;;;2.22;;
60851;SDS011;48553;50.766;2.900;2023-02-01T01:48:29;14.23;;;2.97;;
60851;SDS011;48553;50.766;2.900;2023-02-01T01:51:31;14.00;;;2.35;;
60851;SDS011;48553;50.766;2.900;2023-02-01T01:54:38;10.98;;;2.15;;
60851;SDS011;48553;50.766;2.900;2023-02-01T01:57:44;11.43;;;2.20;;
60851;SDS011;48553;50.766;2.900;2023-02-01T02:00:51;10.43;;;2.35;;
60851;SDS011;48553;50.766;2.900;2023-02-01T02:03:53;11.98;;;2.20;;
60851;SDS011;48553;50.766;2.900;2023-02-01T02:06:56;12.95;;;2.30;;
60851;SDS011;48553;50.766;2.900;2023-02-01T02:10:03;10.90;;;2.08;;
60851;SDS011;48553;50.766;2.900;2023-02-01T02:13:05;11.83;;;2.30;;
60851;SDS011;48553;50.766;2.900;2023-02-01T02:25:31;11.60;;;2.33;;
60851;SDS011;48553;50.766;2.900;2023-02-01T02:42:39;13.30;;;2.28;;
60851;SDS011;48553;50.766;2.900;2023-02-01T02:49:49;15.93;;;2.58;;
60851;SDS011;48553;50.766;2.900;2023-02-01T02:53:32;15.27;;;2.20;;
60851;SDS011;48553;50.766;2.900;2023-02-01T02:56:57;15.05;;;2.42;;
60851;SDS011;48553;50.766;2.900;2023-02-01T03:00:19;11.32;;;2.17;;
60851;SDS011;48553;50.766;2.900;2023-02-01T03:03:43;10.52;;;2.00;;
60851;SDS011;48553;50.766;2.900;2023-02-01T03:14:08;15.75;;;2.13;;
60851;SDS011;48553;50.766;2.900;2023-02-01T03:17:13;13.07;;;2.03;;
60851;SDS011;48553;50.766;2.900;2023-02-01T03:20:18;10.35;;;2.20;;
60851;SDS011;48553;50.766;2.900;2023-02-01T03:23:23;12.15;;;2.00;;
60851;SDS011;48553;50.766;2.900;2023-02-01T03:26:29;12.10;;;2.08;;
60851;SDS011;48553;50.766;2.900;2023-02-01T03:33:18;9.85;;;1.98;;
60851;SDS011;48553;50.766;2.900;2023-02-01T03:36:31;11.43;;;2.15;;
60851;SDS011;48553;50.766;2.900;2023-02-01T03:43:09;13.10;;;2.38;;
60851;SDS011;48553;50.766;2.900;2023-02-01T03:46:17;14.75;;;1.90;;
60851;SDS011;48553;50.766;2.900;2023-02-01T03:49:40;15.63;;;2.40;;
60851;SDS011;48553;50.766;2.900;2023-02-01T03:53:03;18.73;;;2.58;;
60851;SDS011;48553;50.766;2.900;2023-02-01T03:56:06;13.87;;;2.00;;
60851;SDS011;48553;50.766;2.900;2023-02-01T03:59:08;11.73;;;1.92;;
60851;SDS011;48553;50.766;2.900;2023-02-01T04:02:08;14.20;;;2.22;;
60851;SDS011;48553;50.766;2.900;2023-02-01T04:05:08;13.63;;;2.38;;
60851;SDS011;48553;50.766;2.900;2023-02-01T04:08:09;10.90;;;2.10;;
60851;SDS011;48553;50.766;2.900;2023-02-01T04:11:09;11.35;;;2.22;;
60851;SDS011;48553;50.766;2.900;2023-02-01T04:14:11;16.58;;;2.28;;
60851;SDS011;48553;50.766;2.900;2023-02-01T04:17:11;11.38;;;2.03;;
60851;SDS011;48553;50.766;2.900;2023-02-01T04:20:12;10.60;;;2.28;;
60851;SDS011;48553;50.766;2.900;2023-02-01T04:23:12;13.38;;;2.03;;
60851;SDS011;48553;50.766;2.900;2023-02-01T04:26:12;11.52;;;2.47;;
60851;SDS011;48553;50.766;2.900;2023-02-01T04:29:13;14.52;;;2.75;;
60851;SDS011;48553;50.766;2.900;2023-02-01T04:32:13;12.88;;;2.47;;
60851;SDS011;48553;50.766;2.900;2023-02-01T04:35:15;12.95;;;2.13;;
60851;SDS011;48553;50.766;2.900;2023-02-01T04:38:17;9.65;;;2.30;;
60851;SDS011;48553;50.766;2.900;2023-02-01T04:41:18;13.57;;;2.08;;
60851;SDS011;48553;50.766;2.900;2023-02-01T04:44:19;13.05;;;2.28;;
60851;SDS011;48553;50.766;2.900;2023-02-01T04:47:20;12.65;;;2.42;;
60851;SDS011;48553;50.766;2.900;2023-02-01T04:50:20;14.95;;;2.47;;
60851;SDS011;48553;50.766;2.900;2023-02-01T04:53:21;13.73;;;2.42;;
60851;SDS011;48553;50.766;2.900;2023-02-01T04:56:21;9.18;;;1.80;;
60851;SDS011;48553;50.766;2.900;2023-02-01T04:59:22;14.43;;;2.28;;
60851;SDS011;48553;50.766;2.900;2023-02-01T05:02:22;15.35;;;2.40;;
60851;SDS011;48553;50.766;2.900;2023-02-01T05:05:23;17.23;;;2.55;;
60851;SDS011;48553;50.766;2.900;2023-02-01T05:08:23;16.80;;;2.17;;
60851;SDS011;48553;50.766;2.900;2023-02-01T05:11:25;13.55;;;2.20;;
60851;SDS011;48553;50.766;2.900;2023-02-01T05:14:44;10.40;;;2.33;;
60851;SDS011;48553;50.766;2.900;2023-02-01T05:17:44;13.77;;;2.38;;
60851;SDS011;48553;50.766;2.900;2023-02-01T05:20:45;15.38;;;2.50;;
60851;SDS011;48553;50.766;2.900;2023-02-01T05:23:45;15.43;;;2.10;;
60851;SDS011;48553;50.766;2.900;2023-02-01T05:27:04;12.77;;;2.25;;
60851;SDS011;48553;50.766;2.900;2023-02-01T05:30:05;10.85;;;2.50;;
60851;SDS011;48553;50.766;2.900;2023-02-01T05:33:06;13.18;;;2.25;;
60851;SDS011;48553;50.766;2.900;2023-02-01T05:36:06;12.93;;;2.22;;
60851;SDS011;48553;50.766;2.900;2023-02-01T05:39:07;15.23;;;2.53;;
60851;SDS011;48553;50.766;2.900;2023-02-01T05:42:07;10.25;;;2.53;;
60851;SDS011;48553;50.766;2.900;2023-02-01T05:45:08;16.52;;;2.70;;
60851;SDS011;48553;50.766;2.900;2023-02-01T05:48:09;11.32;;;2.33;;
60851;SDS011;48553;50.766;2.900;2023-02-01T05:51:10;10.55;;;2.53;;
60851;SDS011;48553;50.766;2.900;2023-02-01T05:54:11;11.63;;;2.55;;
60851;SDS011;48553;50.766;2.900;2023-02-01T05:57:11;12.85;;;2.78;;
60851;SDS011;48553;50.766;2.900;2023-02-01T06:00:12;13.68;;;2.63;;
60851;SDS011;48553;50.766;2.900;2023-02-01T06:03:13;15.13;;;2.35;;
60851;SDS011;48553;50.766;2.900;2023-02-01T06:06:14;9.57;;;2.10;;
60851;SDS011;48553;50.766;2.900;2023-02-01T06:09:14;13.05;;;2.28;;
60851;SDS011;48553;50.766;2.900;2023-02-01T06:12:14;15.00;;;2.45;;
60851;SDS011;48553;50.766;2.900;2023-02-01T06:15:15;15.25;;;2.33;;
60851;SDS011;48553;50.766;2.900;2023-02-01T06:18:16;13.63;;;2.38;;
60851;SDS011;48553;50.766;2.900;2023-02-01T06:21:16;18.25;;;2.17;;
60851;SDS011;48553;50.766;2.900;2023-02-01T06:24:23;12.52;;;2.55;;
60851;SDS011;48553;50.766;2.900;2023-02-01T06:27:23;11.85;;;2.38;;
60851;SDS011;48553;50.766;2.900;2023-02-01T06:30:24;10.48;;;2.13;;
60851;SDS011;48553;50.766;2.900;2023-02-01T06:33:25;11.25;;;2.28;;
60851;SDS011;48553;50.766;2.900;2023-02-01T06:36:26;11.15;;;2.42;;
60851;SDS011;48553;50.766;2.900;2023-02-01T06:39:26;14.73;;;2.38;;
60851;SDS011;48553;50.766;2.900;2023-02-01T06:42:28;18.08;;;2.47;;
60851;SDS011;48553;50.766;2.900;2023-02-01T06:45:28;10.80;;;2.20;;
60851;SDS011;48553;50.766;2.900;2023-02-01T06:48:29;15.10;;;2.45;;
60851;SDS011;48553;50.766;2.900;2023-02-01T06:51:30;13.82;;;2.28;;
60851;SDS011;48553;50.766;2.900;2023-02-01T06:54:30;12.45;;;2.08;;
60851;SDS011;48553;50.766;2.900;2023-02-01T06:57:33;15.18;;;2.70;;
60851;SDS011;48553;50.766;2.900;2023-02-01T07:00:35;14.82;;;2.50;;
60851;SDS011;48553;50.766;2.900;2023-02-01T07:03:36;11.25;;;2.22;;
60851;SDS011;48553;50.766;2.900;2023-02-01T07:06:37;17.80;;;2.60;;
60851;SDS011;48553;50.766;2.900;2023-02-01T07:09:38;15.93;;;2.67;;
60851;SDS011;48553;50.766;2.900;2023-02-01T07:12:38;10.32;;;2.50;;
60851;SDS011;48553;50.766;2.900;2023-02-01T07:15:39;13.45;;;2.42;;
60851;SDS011;48553;50.766;2.900;2023-02-01T07:18:40;14.88;;;2.42;;
60851;SDS011;48553;50.766;2.900;2023-02-01T07:21:40;11.98;;;2.15;;
60851;SDS011;48553;50.766;2.900;2023-02-01T07:24:40;13.70;;;2.45;;
60851;SDS011;48553;50.766;2.900;2023-02-01T07:27:41;13.00;;;2.80;;
60851;SDS011;48553;50.766;2.900;2023-02-01T07:30:41;17.98;;;2.67;;
60851;SDS011;48553;50.766;2.900;2023-02-01T07:33:42;13.00;;;2.30;;
60851;SDS011;48553;50.766;2.900;2023-02-01T07:36:42;14.23;;;2.55;;
60851;SDS011;48553;50.766;2.900;2023-02-01T07:39:43;10.40;;;2.50;;
60851;SDS011;48553;50.766;2.900;2023-02-01T07:42:43;15.00;;;2.50;;
60851;SDS011;48553;50.766;2.900;2023-02-01T07:45:49;15.68;;;2.45;;
60851;SDS011;48553;50.766;2.900;2023-02-01T07:48:50;9.20;;;2.05;;
60851;SDS011;48553;50.766;2.900;2023-02-01T07:51:51;10.60;;;2.55;;
60851;SDS011;48553;50.766;2.900;2023-02-01T07:54:52;16.08;;;2.58;;
60851;SDS011;48553;50.766;2.900;2023-02-01T07:57:52;15.68;;;2.72;;
60851;SDS011;48553;50.766;2.900;2023-02-01T08:00:53;13.63;;;2.30;;
60851;SDS011;48553;50.766;2.900;2023-02-01T08:04:12;11.00;;;2.22;;
60851;SDS011;48553;50.766;2.900;2023-02-01T08:07:13;12.27;;;2.38;;
60851;SDS011;48553;50.766;2.900;2023-02-01T08:10:14;10.55;;;2.20;;
60851;SDS011;48553;50.766;2.900;2023-02-01T08:13:14;15.48;;;2.30;;
60851;SDS011;48553;50.766;2.900;2023-02-01T08:16:15;10.95;;;2.22;;
60851;SDS011;48553;50.766;2.900;2023-02-01T08:19:17;12.20;;;2.67;;
60851;SDS011;48553;50.766;2.900;2023-02-01T08:22:17;11.35;;;2.28;;
60851;SDS011;48553;50.766;2.900;2023-02-01T08:25:18;12.13;;;2.75;;
60851;SDS011;48553;50.766;2.900;2023-02-01T08:28:18;10.45;;;2.42;;
60851;SDS011;48553;50.766;2.900;2023-02-01T08:31:20;15.30;;;2.35;;
60851;SDS011;48553;50.766;2.900;2023-02-01T08:34:22;15.88;;;2.30;;
60851;SDS011;48553;50.766;2.900;2023-02-01T08:37:23;10.60;;;2.15;;
60851;SDS011;48553;50.766;2.900;2023-02-01T08:40:23;12.60;;;2.10;;
60851;SDS011;48553;50.766;2.900;2023-02-01T08:43:24;14.00;;;2.95;;
60851;SDS011;48553;50.766;2.900;2023-02-01T08:46:24;13.85;;;2.35;;
60851;SDS011;48553;50.766;2.900;2023-02-01T08:49:25;13.00;;;2.42;;
60851;SDS011;48553;50.766;2.900;2023-02-01T08:52:25;12.07;;;2.10;;
60851;SDS011;48553;50.766;2.900;2023-02-01T08:55:25;14.93;;;2.38;;
60851;SDS011;48553;50.766;2.900;2023-02-01T08:58:26;13.90;;;2.15;;
60851;SDS011;48553;50.766;2.900;2023-02-01T09:01:27;11.05;;;2.25;;
60851;SDS011;48553;50.766;2.900;2023-02-01T09:04:27;14.88;;;2.10;;
60851;SDS011;48553;50.766;2.900;2023-02-01T09:07:27;16.85;;;2.25;;
60851;SDS011;48553;50.766;2.900;2023-02-01T09:10:28;14.75;;;2.28;;
60851;SDS011;48553;50.766;2.900;2023-02-01T09:13:28;15.15;;;2.40;;
60851;SDS011;48553;50.766;2.900;2023-02-01T09:16:29;8.25;;;2.15;;
60851;SDS011;48553;50.766;2.900;2023-02-01T09:19:29;13.23;;;2.20;;
60851;SDS011;48553;50.766;2.900;2023-02-01T09:22:29;7.93;;;1.95;;
60851;SDS011;48553;50.766;2.900;2023-02-01T09:25:30;12.25;;;2.00;;
60851;SDS011;48553;50.766;2.900;2023-02-01T09:28:30;11.18;;;2.20;;
60851;SDS011;48553;50.766;2.900;2023-02-01T09:31:31;9.98;;;2.00;;
60851;SDS011;48553;50.766;2.900;2023-02-01T09:34:32;11.10;;;2.00;;
60851;SDS011;48553;50.766;2.900;2023-02-01T09:37:32;11.48;;;2.08;;
60851;SDS011;48553;50.766;2.900;2023-02-01T09:40:33;9.35;;;2.08;;
60851;SDS011;48553;50.766;2.900;2023-02-01T09:43:37;8.13;;;1.67;;
60851;SDS011;48553;50.766;2.900;2023-02-01T09:46:46;10.55;;;1.90;;
60851;SDS011;48553;50.766;2.900;2023-02-01T09:50:08;11.75;;;2.10;;
60851;SDS011;48553;50.766;2.900;2023-02-01T09:53:33;10.45;;;1.92;;
60851;SDS011;48553;50.766;2.900;2023-02-01T09:59:48;10.00;;;1.83;;
60851;SDS011;48553;50.766;2.900;2023-02-01T10:02:54;11.57;;;1.70;;
60851;SDS011;48553;50.766;2.900;2023-02-01T10:12:49;11.82;;;1.83;;
60851;SDS011;48553;50.766;2.900;2023-02-01T10:29:23;14.35;;;1.92;;
60851;SDS011;48553;50.766;2.900;2023-02-01T10:32:30;9.93;;;1.80;;
60851;SDS011;48553;50.766;2.900;2023-02-01T10:35:33;8.65;;;1.30;;
60851;SDS011;48553;50.766;2.900;2023-02-01T10:38:36;8.73;;;1.55;;
60851;SDS011;48553;50.766;2.900;2023-02-01T10:41:38;7.05;;;1.45;;
60851;SDS011;48553;50.766;2.900;2023-02-01T10:44:40;7.50;;;1.55;;
60851;SDS011;48553;50.766;2.900;2023-02-01T10:47:43;10.80;;;1.63;;
60851;SDS011;48553;50.766;2.900;2023-02-01T10:51:05;9.07;;;1.30;;
60851;SDS011;48553;50.766;2.900;2023-02-01T10:57:22;10.57;;;1.50;;
60851;SDS011;48553;50.766;2.900;2023-02-01T11:00:26;7.30;;;1.35;;
60851;SDS011;48553;50.766;2.900;2023-02-01T11:06:40;9.25;;;1.42;;
60851;SDS011;48553;50.766;2.900;2023-02-01T11:09:48;6.68;;;1.40;;
60851;SDS011;48553;50.766;2.900;2023-02-01T11:12:57;9.85;;;1.48;;
60851;SDS011;48553;50.766;2.900;2023-02-01T11:16:03;10.18;;;1.63;;
60851;SDS011;48553;50.766;2.900;2023-02-01T11:19:04;5.85;;;1.48;;
60851;SDS011;48553;50.766;2.900;2023-02-01T11:22:05;8.75;;;1.73;;
60851;SDS011;48553;50.766;2.900;2023-02-01T11:25:08;7.93;;;1.40;;
60851;SDS011;48553;50.766;2.900;2023-02-01T11:28:10;8.75;;;1.52;;
60851;SDS011;48553;50.766;2.900;2023-02-01T11:31:12;6.47;;;1.35;;
60851;SDS011;48553;50.766;2.900;2023-02-01T11:34:14;6.18;;;1.38;;
60851;SDS011;48553;50.766;2.900;2023-02-01T11:37:21;7.53;;;1.35;;
60851;SDS011;48553;50.766;2.900;2023-02-01T11:40:57;7.88;;;1.52;;
60851;SDS011;48553;50.766;2.900;2023-02-01T11:43:57;8.02;;;1.40;;
60851;SDS011;48553;50.766;2.900;2023-02-01T11:47:42;10.18;;;1.70;;
60851;SDS011;48553;50.766;2.900;2023-02-01T11:53:55;7.15;;;1.50;;
60851;SDS011;48553;50.766;2.900;2023-02-01T12:07:16;6.22;;;1.38;;
60851;SDS011;48553;50.766;2.900;2023-02-01T12:17:36;11.75;;;2.08;;
60851;SDS011;48553;50.766;2.900;2023-02-01T12:21:06;13.90;;;1.70;;
60851;SDS011;48553;50.766;2.900;2023-02-01T12:31:15;14.10;;;1.98;;
60851;SDS011;48553;50.766;2.900;2023-02-01T12:44:18;9.88;;;1.70;;
60851;SDS011;48553;50.766;2.900;2023-02-01T12:47:34;11.30;;;1.88;;
60851;SDS011;48553;50.766;2.900;2023-02-01T12:50:46;10.45;;;1.70;;
60851;SDS011;48553;50.766;2.900;2023-02-01T12:54:02;10.57;;;1.77;;
60851;SDS011;48553;50.766;2.900;2023-02-01T12:57:25;12.70;;;1.77;;
60851;SDS011;48553;50.766;2.900;2023-02-01T13:00:39;9.40;;;2.00;;
60851;SDS011;48553;50.766;2.900;2023-02-01T13:10:31;15.55;;;2.30;;
60851;SDS011;48553;50.766;2.900;2023-02-01T13:13:40;10.00;;;1.95;;
60851;SDS011;48553;50.766;2.900;2023-02-01T13:17:37;10.10;;;1.88;;
60851;SDS011;48553;50.766;2.900;2023-02-01T13:20:21;12.02;;;1.90;;
60851;SDS011;48553;50.766;2.900;2023-02-01T13:23:27;8.32;;;1.70;;
60851;SDS011;48553;50.766;2.900;2023-02-01T13:26:35;9.63;;;1.65;;
60851;SDS011;48553;50.766;2.900;2023-02-01T13:29:35;7.68;;;1.35;;
60851;SDS011;48553;50.766;2.900;2023-02-01T13:43:28;9.75;;;1.33;;
60851;SDS011;48553;50.766;2.900;2023-02-01T13:46:38;7.97;;;1.52;;
60851;SDS011;48553;50.766;2.900;2023-02-01T13:49:43;8.88;;;1.95;;
60851;SDS011;48553;50.766;2.900;2023-02-01T13:52:43;8.80;;;1.48;;
60851;SDS011;48553;50.766;2.900;2023-02-01T13:55:50;7.00;;;2.03;;
60851;SDS011;48553;50.766;2.900;2023-02-01T13:58:56;9.23;;;1.98;;
60851;SDS011;48553;50.766;2.900;2023-02-01T14:08:40;9.23;;;1.73;;
60851;SDS011;48553;50.766;2.900;2023-02-01T14:11:49;8.68;;;1.70;;
60851;SDS011;48553;50.766;2.900;2023-02-01T14:14:53;5.82;;;1.70;;
60851;SDS011;48553;50.766;2.900;2023-02-01T14:21:46;10.88;;;1.75;;
60851;SDS011;48553;50.766;2.900;2023-02-01T14:24:51;7.13;;;1.42;;
60851;SDS011;48553;50.766;2.900;2023-02-01T14:27:54;12.35;;;1.95;;
60851;SDS011;48553;50.766;2.900;2023-02-01T14:30:56;9.35;;;1.70;;
60851;SDS011;48553;50.766;2.900;2023-02-01T14:33:58;8.88;;;1.95;;
60851;SDS011;48553;50.766;2.900;2023-02-01T14:37:03;12.37;;;2.00;;
60851;SDS011;48553;50.766;2.900;2023-02-01T14:43:12;8.40;;;1.73;;
60851;SDS011;48553;50.766;2.900;2023-02-01T14:46:12;11.50;;;1.92;;
60851;SDS011;48553;50.766;2.900;2023-02-01T14:49:13;12.80;;;2.00;;
60851;SDS011;48553;50.766;2.900;2023-02-01T14:52:15;8.85;;;1.65;;
60851;SDS011;48553;50.766;2.900;2023-02-01T15:01:56;11.60;;;1.98;;
60851;SDS011;48553;50.766;2.900;2023-02-01T15:04:58;12.55;;;2.00;;
60851;SDS011;48553;50.766;2.900;2023-02-01T15:08:02;9.77;;;2.15;;
60851;SDS011;48553;50.766;2.900;2023-02-01T15:11:21;9.50;;;1.73;;
60851;SDS011;48553;50.766;2.900;2023-02-01T15:14:22;11.90;;;1.63;;
60851;SDS011;48553;50.766;2.900;2023-02-01T15:17:23;9.32;;;2.00;;
60851;SDS011;48553;50.766;2.900;2023-02-01T15:20:33;16.77;;;2.25;;
60851;SDS011;48553;50.766;2.900;2023-02-01T15:23:33;8.85;;;1.45;;
60851;SDS011;48553;50.766;2.900;2023-02-01T15:26:34;11.48;;;2.05;;
60851;SDS011;48553;50.766;2.900;2023-02-01T15:29:34;12.65;;;2.13;;
60851;SDS011;48553;50.766;2.900;2023-02-01T15:32:36;12.65;;;2.40;;
60851;SDS011;48553;50.766;2.900;2023-02-01T15:35:40;15.52;;;2.65;;
60851;SDS011;48553;50.766;2.900;2023-02-01T15:38:43;13.75;;;2.10;;
60851;SDS011;48553;50.766;2.900;2023-02-01T15:41:46;12.15;;;1.95;;
60851;SDS011;48553;50.766;2.900;2023-02-01T15:44:48;9.07;;;1.67;;
60851;SDS011;48553;50.766;2.900;2023-02-01T15:47:49;14.45;;;2.17;;
60851;SDS011;48553;50.766;2.900;2023-02-01T15:50:52;13.73;;;2.25;;
60851;SDS011;48553;50.766;2.900;2023-02-01T15:53:59;12.55;;;2.30;;
60851;SDS011;48553;50.766;2.900;2023-02-01T15:57:20;11.05;;;1.95;;
60851;SDS011;48553;50.766;2.900;2023-02-01T16:00:31;15.70;;;2.65;;
60851;SDS011;48553;50.766;2.900;2023-02-01T16:03:43;12.30;;;2.08;;
60851;SDS011;48553;50.766;2.900;2023-02-01T16:07:03;13.80;;;2.35;;
60851;SDS011;48553;50.766;2.900;2023-02-01T16:10:26;13.48;;;2.55;;
60851;SDS011;48553;50.766;2.900;2023-02-01T16:13:28;16.40;;;2.90;;
60851;SDS011;48553;50.766;2.900;2023-02-01T16:16:28;15.70;;;2.25;;
60851;SDS011;48553;50.766;2.900;2023-02-01T16:19:29;16.92;;;2.97;;
60851;SDS011;48553;50.766;2.900;2023-02-01T16:22:30;16.77;;;2.55;;
60851;SDS011;48553;50.766;2.900;2023-02-01T16:25:30;14.07;;;2.63;;
60851;SDS011;48553;50.766;2.900;2023-02-01T16:28:31;11.60;;;2.55;;
60851;SDS011;48553;50.766;2.900;2023-02-01T16:31:34;13.65;;;2.22;;
60851;SDS011;48553;50.766;2.900;2023-02-01T16:34:36;17.52;;;2.40;;
60851;SDS011;48553;50.766;2.900;2023-02-01T16:37:36;14.93;;;2.42;;
60851;SDS011;48553;50.766;2.900;2023-02-01T16:40:37;9.98;;;2.45;;
60851;SDS011;48553;50.766;2.900;2023-02-01T16:43:38;14.18;;;2.40;;
60851;SDS011;48553;50.766;2.900;2023-02-01T16:46:39;12.93;;;2.53;;
60851;SDS011;48553;50.766;2.900;2023-02-01T16:49:42;15.68;;;3.13;;
60851;SDS011;48553;50.766;2.900;2023-02-01T16:52:43;9.13;;;2.28;;
60851;SDS011;48553;50.766;2.900;2023-02-01T16:55:44;14.95;;;2.88;;
60851;SDS011;48553;50.766;2.900;2023-02-01T16:58:46;13.48;;;2.55;;
60851;SDS011;48553;50.766;2.900;2023-02-01T17:01:47;17.80;;;3.28;;
60851;SDS011;48553;50.766;2.900;2023-02-01T17:04:47;16.33;;;2.75;;
60851;SDS011;48553;50.766;2.900;2023-02-01T17:07:48;15.98;;;2.83;;
60851;SDS011;48553;50.766;2.900;2023-02-01T17:10:49;13.10;;;2.58;;
60851;SDS011;48553;50.766;2.900;2023-02-01T17:13:49;15.55;;;3.33;;
60851;SDS011;48553;50.766;2.900;2023-02-01T17:16:50;14.60;;;3.17;;
60851;SDS011;48553;50.766;2.900;2023-02-01T17:19:51;17.33;;;3.40;;
60851;SDS011;48553;50.766;2.900;2023-02-01T17:22:53;16.60;;;3.00;;
60851;SDS011;48553;50.766;2.900;2023-02-01T17:25:53;16.85;;;3.25;;
60851;SDS011;48553;50.766;2.900;2023-02-01T17:28:54;16.42;;;3.00;;
60851;SDS011;48553;50.766;2.900;2023-02-01T17:31:54;20.42;;;3.17;;
60851;SDS011;48553;50.766;2.900;2023-02-01T17:34:55;20.70;;;3.28;;
60851;SDS011;48553;50.766;2.900;2023-02-01T17:37:57;13.75;;;2.95;;
60851;SDS011;48553;50.766;2.900;2023-02-01T17:40:57;19.13;;;2.90;;
60851;SDS011;48553;50.766;2.900;2023-02-01T17:43:58;18.27;;;3.38;;
60851;SDS011;48553;50.766;2.900;2023-02-01T17:46:58;22.98;;;3.30;;
60851;SDS011;48553;50.766;2.900;2023-02-01T17:49:59;20.10;;;3.05;;
60851;SDS011;48553;50.766;2.900;2023-02-01T17:52:59;15.93;;;3.13;;
60851;SDS011;48553;50.766;2.900;2023-02-01T17:56:00;14.13;;;2.97;;
60851;SDS011;48553;50.766;2.900;2023-02-01T17:59:00;18.10;;;3.22;;
60851;SDS011;48553;50.766;2.900;2023-02-01T18:02:01;24.15;;;3.15;;
60851;SDS011;48553;50.766;2.900;2023-02-01T18:05:01;15.07;;;3.05;;
60851;SDS011;48553;50.766;2.900;2023-02-01T18:08:01;17.85;;;3.30;;
60851;SDS011;48553;50.766;2.900;2023-02-01T18:11:02;18.70;;;3.25;;
60851;SDS011;48553;50.766;2.900;2023-02-01T18:14:02;15.77;;;3.53;;
60851;SDS011;48553;50.766;2.900;2023-02-01T18:17:03;19.45;;;3.53;;
60851;SDS011;48553;50.766;2.900;2023-02-01T18:20:03;20.23;;;3.30;;
60851;SDS011;48553;50.766;2.900;2023-02-01T18:23:05;17.83;;;3.40;;
60851;SDS011;48553;50.766;2.900;2023-02-01T18:26:08;18.35;;;3.25;;
60851;SDS011;48553;50.766;2.900;2023-02-01T18:29:11;17.00;;;3.30;;
60851;SDS011;48553;50.766;2.900;2023-02-01T18:32:11;17.88;;;3.40;;
60851;SDS011;48553;50.766;2.900;2023-02-01T18:35:33;17.48;;;3.10;;
60851;SDS011;48553;50.766;2.900;2023-02-01T18:38:32;14.95;;;3.13;;
60851;SDS011;48553;50.766;2.900;2023-02-01T18:41:33;18.92;;;3.47;;
60851;SDS011;48553;50.766;2.900;2023-02-01T18:44:33;18.38;;;3.75;;
60851;SDS011;48553;50.766;2.900;2023-02-01T18:47:34;18.65;;;3.47;;
60851;SDS011;48553;50.766;2.900;2023-02-01T18:50:35;19.25;;;3.40;;
60851;SDS011;48553;50.766;2.900;2023-02-01T18:53:38;14.52;;;3.03;;
60851;SDS011;48553;50.766;2.900;2023-02-01T18:56:39;21.65;;;3.35;;
60851;SDS011;48553;50.766;2.900;2023-02-01T18:59:39;18.90;;;3.42;;
60851;SDS011;48553;50.766;2.900;2023-02-01T19:02:40;17.55;;;3.42;;
60851;SDS011;48553;50.766;2.900;2023-02-01T19:05:40;22.25;;;3.88;;
60851;SDS011;48553;50.766;2.900;2023-02-01T19:08:43;20.92;;;3.58;;
60851;SDS011;48553;50.766;2.900;2023-02-01T19:11:44;19.80;;;3.50;;
60851;SDS011;48553;50.766;2.900;2023-02-01T19:14:45;19.67;;;3.40;;
60851;SDS011;48553;50.766;2.900;2023-02-01T19:17:46;18.10;;;3.95;;
60851;SDS011;48553;50.766;2.900;2023-02-01T19:20:48;20.67;;;4.47;;
60851;SDS011;48553;50.766;2.900;2023-02-01T19:23:53;21.25;;;5.03;;
60851;SDS011;48553;50.766;2.900;2023-02-01T19:26:54;20.80;;;4.90;;
60851;SDS011;48553;50.766;2.900;2023-02-01T19:29:55;18.75;;;4.25;;
60851;SDS011;48553;50.766;2.900;2023-02-01T19:32:56;19.17;;;4.13;;
60851;SDS011;48553;50.766;2.900;2023-02-01T19:35:57;21.88;;;4.03;;
60851;SDS011;48553;50.766;2.900;2023-02-01T19:38:58;17.92;;;3.47;;
60851;SDS011;48553;50.766;2.900;2023-02-01T19:41:58;15.93;;;3.47;;
60851;SDS011;48553;50.766;2.900;2023-02-01T19:44:59;14.23;;;3.28;;
60851;SDS011;48553;50.766;2.900;2023-02-01T19:47:59;15.05;;;2.75;;
60851;SDS011;48553;50.766;2.900;2023-02-01T19:51:02;19.17;;;2.95;;
60851;SDS011;48553;50.766;2.900;2023-02-01T19:54:03;16.85;;;2.95;;
60851;SDS011;48553;50.766;2.900;2023-02-01T19:57:03;16.23;;;3.17;;
60851;SDS011;48553;50.766;2.900;2023-02-01T20:00:04;14.55;;;2.83;;
60851;SDS011;48553;50.766;2.900;2023-02-01T20:03:07;14.88;;;2.78;;
60851;SDS011;48553;50.766;2.900;2023-02-01T20:06:08;20.90;;;3.70;;
60851;SDS011;48553;50.766;2.900;2023-02-01T20:09:09;19.42;;;3.00;;
60851;SDS011;48553;50.766;2.900;2023-02-01T20:12:10;13.18;;;3.08;;
60851;SDS011;48553;50.766;2.900;2023-02-01T20:15:11;15.40;;;3.40;;
60851;SDS011;48553;50.766;2.900;2023-02-01T20:18:11;19.20;;;2.72;;
60851;SDS011;48553;50.766;2.900;2023-02-01T20:21:12;8.85;;;2.45;;
60851;SDS011;48553;50.766;2.900;2023-02-01T20:24:14;13.40;;;2.75;;
60851;SDS011;48553;50.766;2.900;2023-02-01T20:27:17;15.18;;;2.92;;
60851;SDS011;48553;50.766;2.900;2023-02-01T20:30:17;13.23;;;2.67;;
60851;SDS011;48553;50.766;2.900;2023-02-01T20:33:19;17.90;;;2.70;;
60851;SDS011;48553;50.766;2.900;2023-02-01T20:36:19;13.10;;;2.85;;
60851;SDS011;48553;50.766;2.900;2023-02-01T20:39:20;10.90;;;2.53;;